sensor_id;sensor_type;location;lat;lon;timestamp;P1;durP1;ratioP1;P2;durP2;ratioP2
9789;SDS011;4934;50.852;8.098;2023-03-01T00:01:05;32.80;;;12.20;;
9789;SDS011;4934;50.852;8.098;2023-03-01T00:03:34;26.30;;;10.47;;
9789;SDS011;4934;50.852;8.098;2023-03-01T00:06:01;24.57;;;11.03;;
9789;SDS011;4934;50.852;8.098;2023-03-01T00:08:27;31.23;;;12.37;;
9789;SDS011;4934;50.852;8.098;2023-03-01T00:11:12;32.83;;;11.23;;
9789;SDS011;4934;50.852;8.098;2023-03-01T00:13:40;31.50;;;11.73;;
9789;SDS011;4934;50.852;8.098;2023-03-01T00:16:07;26.70;;;10.23;;
9789;SDS011;4934;50.852;8.098;2023-03-01T00:18:34;22.83;;;9.73;;
9789;SDS011;4934;50.852;8.098;2023-03-01T00:20:59;30.97;;;11.27;;
9789;SDS011;4934;50.852;8.098;2023-03-01T00:23:25;28.17;;;10.37;;
9789;SDS011;4934;50.852;8.098;2023-03-01T00:25:51;29.80;;;10.93;;
9789;SDS011;4934;50.852;8.098;2023-03-01T00:28:17;30.53;;;11.07;;
9789;SDS011;4934;50.852;8.098;2023-03-01T00:30:43;31.90;;;12.80;;
9789;SDS011;4934;50.852;8.098;2023-03-01T00:33:09;28.77;;;11.37;;
9789;SDS011;4934;50.852;8.098;2023-03-01T00:35:34;27.17;;;11.77;;
9789;SDS011;4934;50.852;8.098;2023-03-01T00:38:00;29.87;;;10.80;;
9789;SDS011;4934;50.852;8.098;2023-03-01T00:40:27;28.43;;;10.67;;
9789;SDS011;4934;50.852;8.098;2023-03-01T00:42:53;28.23;;;12.33;;
9789;SDS011;4934;50.852;8.098;2023-03-01T00:45:19;26.03;;;10.40;;
9789;SDS011;4934;50.852;8.098;2023-03-01T00:47:45;29.17;;;11.77;;
9789;SDS011;4934;50.852;8.098;2023-03-01T00:50:12;27.87;;;11.63;;
9789;SDS011;4934;50.852;8.098;2023-03-01T00:52:38;34.77;;;12.27;;
9789;SDS011;4934;50.852;8.098;2023-03-01T00:55:03;28.57;;;11.03;;
9789;SDS011;4934;50.852;8.098;2023-03-01T00:57:30;28.87;;;12.17;;
9789;SDS011;4934;50.852;8.098;2023-03-01T00:59:56;28.10;;;12.27;;
9789;SDS011;4934;50.852;8.098;2023-03-01T01:02:22;30.47;;;12.70;;
9789;SDS011;4934;50.852;8.098;2023-03-01T01:04:48;28.37;;;11.17;;
9789;SDS011;4934;50.852;8.098;2023-03-01T01:07:14;32.03;;;12.17;;
9789;SDS011;4934;50.852;8.098;2023-03-01T01:09:40;30.50;;;11.33;;
9789;SDS011;4934;50.852;8.098;2023-03-01T01:12:06;33.33;;;12.10;;
9789;SDS011;4934;50.852;8.098;2023-03-01T01:14:32;27.03;;;10.77;;
9789;SDS011;4934;50.852;8.098;2023-03-01T01:16:57;31.47;;;11.97;;
9789;SDS011;4934;50.852;8.098;2023-03-01T01:19:23;27.97;;;11.50;;
9789;SDS011;4934;50.852;8.098;2023-03-01T01:21:49;26.93;;;10.70;;
9789;SDS011;4934;50.852;8.098;2023-03-01T01:24:15;31.43;;;10.97;;
9789;SDS011;4934;50.852;8.098;2023-03-01T01:26:41;25.93;;;11.67;;
9789;SDS011;4934;50.852;8.098;2023-03-01T01:29:07;28.13;;;11.67;;
9789;SDS011;4934;50.852;8.098;2023-03-01T01:31:34;28.23;;;10.87;;
9789;SDS011;4934;50.852;8.098;2023-03-01T01:34:01;27.00;;;11.63;;
9789;SDS011;4934;50.852;8.098;2023-03-01T01:36:28;29.80;;;12.63;;
9789;SDS011;4934;50.852;8.098;2023-03-01T01:38:54;26.77;;;11.47;;
9789;SDS011;4934;50.852;8.098;2023-03-01T01:41:20;32.30;;;12.23;;
9789;SDS011;4934;50.852;8.098;2023-03-01T01:44:12;33.23;;;11.50;;
9789;SDS011;4934;50.852;8.098;2023-03-01T01:46:44;28.87;;;11.83;;
9789;SDS011;4934;50.852;8.098;2023-03-01T01:51:47;31.07;;;11.57;;
9789;SDS011;4934;50.852;8.098;2023-03-01T01:54:20;31.67;;;12.73;;
9789;SDS011;4934;50.852;8.098;2023-03-01T01:56:52;29.20;;;11.77;;
9789;SDS011;4934;50.852;8.098;2023-03-01T01:59:26;29.43;;;12.23;;
9789;SDS011;4934;50.852;8.098;2023-03-01T02:01:53;26.63;;;12.03;;
9789;SDS011;4934;50.852;8.098;2023-03-01T02:04:19;26.83;;;10.90;;
9789;SDS011;4934;50.852;8.098;2023-03-01T02:06:53;32.13;;;12.37;;
9789;SDS011;4934;50.852;8.098;2023-03-01T02:09:24;30.17;;;11.57;;
9789;SDS011;4934;50.852;8.098;2023-03-01T02:11:51;27.97;;;10.20;;
9789;SDS011;4934;50.852;8.098;2023-03-01T02:14:18;29.43;;;11.10;;
9789;SDS011;4934;50.852;8.098;2023-03-01T02:16:44;23.30;;;9.97;;
9789;SDS011;4934;50.852;8.098;2023-03-01T02:19:11;28.23;;;10.87;;
9789;SDS011;4934;50.852;8.098;2023-03-01T02:27:14;29.83;;;10.77;;
9789;SDS011;4934;50.852;8.098;2023-03-01T02:29:42;33.37;;;11.17;;
9789;SDS011;4934;50.852;8.098;2023-03-01T02:32:08;29.77;;;10.90;;
9789;SDS011;4934;50.852;8.098;2023-03-01T02:34:35;24.80;;;10.27;;
9789;SDS011;4934;50.852;8.098;2023-03-01T02:37:07;26.17;;;11.33;;
9789;SDS011;4934;50.852;8.098;2023-03-01T02:39:42;26.80;;;11.30;;
9789;SDS011;4934;50.852;8.098;2023-03-01T02:42:14;31.07;;;11.47;;
9789;SDS011;4934;50.852;8.098;2023-03-01T02:44:49;25.93;;;10.93;;
9789;SDS011;4934;50.852;8.098;2023-03-01T02:47:15;28.17;;;10.73;;
9789;SDS011;4934;50.852;8.098;2023-03-01T02:49:40;30.10;;;11.83;;
9789;SDS011;4934;50.852;8.098;2023-03-01T02:52:14;26.07;;;10.60;;
9789;SDS011;4934;50.852;8.098;2023-03-01T02:55:11;25.83;;;10.30;;
9789;SDS011;4934;50.852;8.098;2023-03-01T02:57:40;30.37;;;11.57;;
9789;SDS011;4934;50.852;8.098;2023-03-01T03:00:13;29.43;;;11.17;;
9789;SDS011;4934;50.852;8.098;2023-03-01T03:02:44;26.40;;;11.03;;
9789;SDS011;4934;50.852;8.098;2023-03-01T03:05:15;30.23;;;9.83;;
9789;SDS011;4934;50.852;8.098;2023-03-01T03:07:44;30.33;;;12.33;;
9789;SDS011;4934;50.852;8.098;2023-03-01T03:10:14;29.92;;;11.93;;
9789;SDS011;4934;50.852;8.098;2023-03-01T03:12:48;27.20;;;11.13;;
9789;SDS011;4934;50.852;8.098;2023-03-01T03:15:15;26.00;;;10.93;;
9789;SDS011;4934;50.852;8.098;2023-03-01T03:17:41;26.67;;;11.47;;
9789;SDS011;4934;50.852;8.098;2023-03-01T03:20:08;26.83;;;11.87;;
9789;SDS011;4934;50.852;8.098;2023-03-01T03:22:37;31.70;;;10.43;;
9789;SDS011;4934;50.852;8.098;2023-03-01T03:25:05;26.70;;;10.43;;
9789;SDS011;4934;50.852;8.098;2023-03-01T03:27:35;27.93;;;11.23;;
9789;SDS011;4934;50.852;8.098;2023-03-01T03:30:03;32.00;;;11.53;;
9789;SDS011;4934;50.852;8.098;2023-03-01T03:32:34;35.40;;;12.07;;
9789;SDS011;4934;50.852;8.098;2023-03-01T03:35:04;33.33;;;12.77;;
9789;SDS011;4934;50.852;8.098;2023-03-01T03:37:43;30.37;;;11.30;;
9789;SDS011;4934;50.852;8.098;2023-03-01T03:40:28;28.03;;;11.13;;
9789;SDS011;4934;50.852;8.098;2023-03-01T03:43:06;26.13;;;10.20;;
9789;SDS011;4934;50.852;8.098;2023-03-01T03:45:34;31.60;;;11.83;;
9789;SDS011;4934;50.852;8.098;2023-03-01T03:48:01;31.77;;;12.13;;
9789;SDS011;4934;50.852;8.098;2023-03-01T03:50:28;28.60;;;10.23;;
9789;SDS011;4934;50.852;8.098;2023-03-01T03:52:53;26.67;;;10.73;;
9789;SDS011;4934;50.852;8.098;2023-03-01T03:55:19;34.20;;;10.90;;
9789;SDS011;4934;50.852;8.098;2023-03-01T03:57:45;30.00;;;10.47;;
9789;SDS011;4934;50.852;8.098;2023-03-01T04:00:19;29.60;;;11.17;;
9789;SDS011;4934;50.852;8.098;2023-03-01T04:02:46;29.30;;;10.93;;
9789;SDS011;4934;50.852;8.098;2023-03-01T04:05:14;26.37;;;11.90;;
9789;SDS011;4934;50.852;8.098;2023-03-01T04:07:41;27.07;;;10.37;;
9789;SDS011;4934;50.852;8.098;2023-03-01T04:10:09;32.50;;;10.47;;
9789;SDS011;4934;50.852;8.098;2023-03-01T04:12:36;27.53;;;11.13;;
9789;SDS011;4934;50.852;8.098;2023-03-01T04:15:05;28.53;;;10.77;;
9789;SDS011;4934;50.852;8.098;2023-03-01T04:17:44;30.07;;;10.97;;
9789;SDS011;4934;50.852;8.098;2023-03-01T04:20:11;31.80;;;10.70;;
9789;SDS011;4934;50.852;8.098;2023-03-01T04:22:42;33.77;;;12.77;;
9789;SDS011;4934;50.852;8.098;2023-03-01T04:25:12;34.60;;;12.07;;
9789;SDS011;4934;50.852;8.098;2023-03-01T04:27:39;28.57;;;11.63;;
9789;SDS011;4934;50.852;8.098;2023-03-01T04:30:06;37.20;;;13.13;;
9789;SDS011;4934;50.852;8.098;2023-03-01T04:32:32;40.93;;;12.70;;
9789;SDS011;4934;50.852;8.098;2023-03-01T04:34:59;27.37;;;11.47;;
9789;SDS011;4934;50.852;8.098;2023-03-01T04:37:25;36.83;;;11.80;;
9789;SDS011;4934;50.852;8.098;2023-03-01T04:39:51;35.90;;;10.97;;
9789;SDS011;4934;50.852;8.098;2023-03-01T04:42:17;31.70;;;11.13;;
9789;SDS011;4934;50.852;8.098;2023-03-01T04:44:44;34.03;;;11.43;;
9789;SDS011;4934;50.852;8.098;2023-03-01T04:47:10;35.53;;;12.30;;
9789;SDS011;4934;50.852;8.098;2023-03-01T04:49:36;34.63;;;12.93;;
9789;SDS011;4934;50.852;8.098;2023-03-01T04:52:02;34.40;;;11.60;;
9789;SDS011;4934;50.852;8.098;2023-03-01T04:54:29;30.70;;;12.30;;
9789;SDS011;4934;50.852;8.098;2023-03-01T04:56:59;34.23;;;12.13;;
9789;SDS011;4934;50.852;8.098;2023-03-01T04:59:25;41.23;;;14.37;;
9789;SDS011;4934;50.852;8.098;2023-03-01T05:01:51;41.03;;;14.57;;
9789;SDS011;4934;50.852;8.098;2023-03-01T05:04:20;38.13;;;12.90;;
9789;SDS011;4934;50.852;8.098;2023-03-01T05:06:46;33.93;;;11.83;;
9789;SDS011;4934;50.852;8.098;2023-03-01T05:09:12;46.93;;;15.60;;
9789;SDS011;4934;50.852;8.098;2023-03-01T05:11:38;42.97;;;15.00;;
9789;SDS011;4934;50.852;8.098;2023-03-01T05:14:07;43.20;;;15.77;;
9789;SDS011;4934;50.852;8.098;2023-03-01T05:16:33;39.10;;;14.90;;
9789;SDS011;4934;50.852;8.098;2023-03-01T05:19:01;34.03;;;13.27;;
9789;SDS011;4934;50.852;8.098;2023-03-01T05:21:39;32.40;;;12.73;;
9789;SDS011;4934;50.852;8.098;2023-03-01T05:24:25;36.33;;;13.50;;
9789;SDS011;4934;50.852;8.098;2023-03-01T05:26:50;41.10;;;13.57;;
9789;SDS011;4934;50.852;8.098;2023-03-01T05:29:17;36.27;;;13.00;;
9789;SDS011;4934;50.852;8.098;2023-03-01T05:31:50;34.97;;;13.27;;
9789;SDS011;4934;50.852;8.098;2023-03-01T05:34:22;40.53;;;13.20;;
9789;SDS011;4934;50.852;8.098;2023-03-01T05:36:52;37.07;;;14.43;;
9789;SDS011;4934;50.852;8.098;2023-03-01T05:39:25;54.43;;;17.53;;
9789;SDS011;4934;50.852;8.098;2023-03-01T05:41:52;124.67;;;31.63;;
9789;SDS011;4934;50.852;8.098;2023-03-01T05:44:18;110.67;;;31.33;;
9789;SDS011;4934;50.852;8.098;2023-03-01T05:46:44;115.00;;;36.53;;
9789;SDS011;4934;50.852;8.098;2023-03-01T05:49:10;77.87;;;26.03;;
9789;SDS011;4934;50.852;8.098;2023-03-01T05:51:38;66.60;;;22.50;;
9789;SDS011;4934;50.852;8.098;2023-03-01T05:54:04;48.53;;;17.23;;
9789;SDS011;4934;50.852;8.098;2023-03-01T05:56:32;48.83;;;15.73;;
9789;SDS011;4934;50.852;8.098;2023-03-01T05:58:59;47.42;;;15.93;;
9789;SDS011;4934;50.852;8.098;2023-03-01T06:01:25;36.00;;;12.30;;
9789;SDS011;4934;50.852;8.098;2023-03-01T06:03:50;36.03;;;13.03;;
9789;SDS011;4934;50.852;8.098;2023-03-01T06:06:16;35.23;;;12.90;;
9789;SDS011;4934;50.852;8.098;2023-03-01T06:08:42;36.53;;;12.73;;
9789;SDS011;4934;50.852;8.098;2023-03-01T06:11:07;41.17;;;15.40;;
9789;SDS011;4934;50.852;8.098;2023-03-01T06:13:33;41.60;;;14.80;;
9789;SDS011;4934;50.852;8.098;2023-03-01T06:15:58;70.17;;;26.93;;
9789;SDS011;4934;50.852;8.098;2023-03-01T06:18:24;60.03;;;20.77;;
9789;SDS011;4934;50.852;8.098;2023-03-01T06:20:53;31.37;;;13.77;;
9789;SDS011;4934;50.852;8.098;2023-03-01T06:23:19;40.47;;;13.47;;
9789;SDS011;4934;50.852;8.098;2023-03-01T06:25:45;33.53;;;12.30;;
9789;SDS011;4934;50.852;8.098;2023-03-01T06:28:10;38.87;;;12.97;;
9789;SDS011;4934;50.852;8.098;2023-03-01T06:30:36;28.83;;;11.57;;
9789;SDS011;4934;50.852;8.098;2023-03-01T06:33:02;34.63;;;13.13;;
9789;SDS011;4934;50.852;8.098;2023-03-01T06:35:30;32.13;;;11.18;;
9789;SDS011;4934;50.852;8.098;2023-03-01T06:37:56;48.33;;;17.23;;
9789;SDS011;4934;50.852;8.098;2023-03-01T06:40:23;74.90;;;27.70;;
9789;SDS011;4934;50.852;8.098;2023-03-01T06:42:49;49.80;;;19.53;;
9789;SDS011;4934;50.852;8.098;2023-03-01T06:45:15;43.63;;;16.07;;
9789;SDS011;4934;50.852;8.098;2023-03-01T06:47:42;69.60;;;25.53;;
9789;SDS011;4934;50.852;8.098;2023-03-01T06:50:08;64.23;;;27.43;;
9789;SDS011;4934;50.852;8.098;2023-03-01T06:52:34;59.27;;;22.37;;
9789;SDS011;4934;50.852;8.098;2023-03-01T06:54:59;51.20;;;19.93;;
9789;SDS011;4934;50.852;8.098;2023-03-01T06:57:25;54.83;;;21.10;;
9789;SDS011;4934;50.852;8.098;2023-03-01T06:59:51;51.13;;;19.60;;
9789;SDS011;4934;50.852;8.098;2023-03-01T07:02:16;49.13;;;19.20;;
9789;SDS011;4934;50.852;8.098;2023-03-01T07:04:45;50.50;;;19.08;;
9789;SDS011;4934;50.852;8.098;2023-03-01T07:07:11;44.80;;;17.87;;
9789;SDS011;4934;50.852;8.098;2023-03-01T07:09:36;48.63;;;17.80;;
9789;SDS011;4934;50.852;8.098;2023-03-01T07:12:02;40.20;;;14.47;;
9789;SDS011;4934;50.852;8.098;2023-03-01T07:14:28;42.80;;;14.47;;
9789;SDS011;4934;50.852;8.098;2023-03-01T07:16:53;34.50;;;12.23;;
9789;SDS011;4934;50.852;8.098;2023-03-01T07:19:20;35.10;;;12.87;;
9789;SDS011;4934;50.852;8.098;2023-03-01T07:21:46;32.07;;;12.10;;
9789;SDS011;4934;50.852;8.098;2023-03-01T07:24:11;39.67;;;15.37;;
9789;SDS011;4934;50.852;8.098;2023-03-01T07:26:37;50.00;;;18.70;;
9789;SDS011;4934;50.852;8.098;2023-03-01T07:29:04;42.73;;;17.37;;
9789;SDS011;4934;50.852;8.098;2023-03-01T07:31:31;50.30;;;16.75;;
9789;SDS011;4934;50.852;8.098;2023-03-01T07:33:57;32.70;;;14.13;;
9789;SDS011;4934;50.852;8.098;2023-03-01T07:36:23;36.60;;;12.47;;
9789;SDS011;4934;50.852;8.098;2023-03-01T07:38:49;34.93;;;13.27;;
9789;SDS011;4934;50.852;8.098;2023-03-01T07:41:14;41.63;;;16.63;;
9789;SDS011;4934;50.852;8.098;2023-03-01T07:43:40;40.27;;;16.57;;
9789;SDS011;4934;50.852;8.098;2023-03-01T07:46:06;40.27;;;14.70;;
9789;SDS011;4934;50.852;8.098;2023-03-01T07:48:32;68.77;;;26.13;;
9789;SDS011;4934;50.852;8.098;2023-03-01T07:51:02;47.10;;;17.83;;
9789;SDS011;4934;50.852;8.098;2023-03-01T07:53:29;42.67;;;15.93;;
9789;SDS011;4934;50.852;8.098;2023-03-01T07:58:35;34.03;;;12.63;;
9789;SDS011;4934;50.852;8.098;2023-03-01T08:01:09;43.63;;;14.07;;
9789;SDS011;4934;50.852;8.098;2023-03-01T08:03:39;42.10;;;14.50;;
9789;SDS011;4934;50.852;8.098;2023-03-01T08:06:07;37.20;;;15.83;;
9789;SDS011;4934;50.852;8.098;2023-03-01T08:08:34;34.15;;;14.00;;
9789;SDS011;4934;50.852;8.098;2023-03-01T08:11:00;36.37;;;13.47;;
9789;SDS011;4934;50.852;8.098;2023-03-01T08:13:26;43.13;;;16.43;;
9789;SDS011;4934;50.852;8.098;2023-03-01T08:15:53;31.37;;;13.77;;
9789;SDS011;4934;50.852;8.098;2023-03-01T08:18:19;29.23;;;11.63;;
9789;SDS011;4934;50.852;8.098;2023-03-01T08:20:45;28.47;;;11.23;;
9789;SDS011;4934;50.852;8.098;2023-03-01T08:23:11;28.13;;;10.03;;
9789;SDS011;4934;50.852;8.098;2023-03-01T08:25:37;28.80;;;10.33;;
9789;SDS011;4934;50.852;8.098;2023-03-01T08:28:03;23.60;;;9.30;;
9789;SDS011;4934;50.852;8.098;2023-03-01T08:30:29;29.57;;;10.77;;
9789;SDS011;4934;50.852;8.098;2023-03-01T08:32:55;27.83;;;9.83;;
9789;SDS011;4934;50.852;8.098;2023-03-01T08:35:20;24.40;;;10.90;;
9789;SDS011;4934;50.852;8.098;2023-03-01T08:37:46;25.83;;;11.27;;
9789;SDS011;4934;50.852;8.098;2023-03-01T08:40:12;26.20;;;9.90;;
9789;SDS011;4934;50.852;8.098;2023-03-01T08:42:39;23.13;;;10.10;;
9789;SDS011;4934;50.852;8.098;2023-03-01T08:45:06;22.80;;;9.77;;
9789;SDS011;4934;50.852;8.098;2023-03-01T08:47:32;23.37;;;9.33;;
9789;SDS011;4934;50.852;8.098;2023-03-01T08:49:58;18.33;;;9.77;;
9789;SDS011;4934;50.852;8.098;2023-03-01T08:52:24;20.63;;;8.53;;
9789;SDS011;4934;50.852;8.098;2023-03-01T08:54:50;21.17;;;8.70;;
9789;SDS011;4934;50.852;8.098;2023-03-01T08:57:16;19.17;;;7.67;;
9789;SDS011;4934;50.852;8.098;2023-03-01T08:59:42;29.43;;;8.87;;
9789;SDS011;4934;50.852;8.098;2023-03-01T09:02:12;21.27;;;9.13;;
9789;SDS011;4934;50.852;8.098;2023-03-01T09:04:39;21.83;;;9.03;;
9789;SDS011;4934;50.852;8.098;2023-03-01T09:07:05;19.40;;;8.73;;
9789;SDS011;4934;50.852;8.098;2023-03-01T09:09:31;22.90;;;9.17;;
9789;SDS011;4934;50.852;8.098;2023-03-01T09:11:57;18.67;;;7.50;;
9789;SDS011;4934;50.852;8.098;2023-03-01T09:14:22;24.13;;;8.70;;
9789;SDS011;4934;50.852;8.098;2023-03-01T09:16:48;16.17;;;7.97;;
9789;SDS011;4934;50.852;8.098;2023-03-01T09:19:14;21.17;;;8.17;;
9789;SDS011;4934;50.852;8.098;2023-03-01T09:21:39;21.07;;;8.33;;
9789;SDS011;4934;50.852;8.098;2023-03-01T09:24:06;22.23;;;9.20;;
9789;SDS011;4934;50.852;8.098;2023-03-01T09:26:37;19.87;;;9.43;;
9789;SDS011;4934;50.852;8.098;2023-03-01T09:29:02;28.57;;;11.30;;
9789;SDS011;4934;50.852;8.098;2023-03-01T09:31:28;18.60;;;8.20;;
9789;SDS011;4934;50.852;8.098;2023-03-01T09:33:54;18.90;;;8.00;;
9789;SDS011;4934;50.852;8.098;2023-03-01T09:36:20;21.13;;;7.97;;
9789;SDS011;4934;50.852;8.098;2023-03-01T09:38:48;26.00;;;8.43;;
9789;SDS011;4934;50.852;8.098;2023-03-01T09:46:09;24.20;;;8.57;;
9789;SDS011;4934;50.852;8.098;2023-03-01T09:48:46;20.45;;;8.20;;
9789;SDS011;4934;50.852;8.098;2023-03-01T09:51:27;19.23;;;7.77;;
9789;SDS011;4934;50.852;8.098;2023-03-01T09:53:56;20.77;;;8.07;;
9789;SDS011;4934;50.852;8.098;2023-03-01T10:07:05;17.30;;;7.70;;
9789;SDS011;4934;50.852;8.098;2023-03-01T10:09:34;19.83;;;7.83;;
9789;SDS011;4934;50.852;8.098;2023-03-01T10:12:04;20.65;;;8.52;;
9789;SDS011;4934;50.852;8.098;2023-03-01T10:14:39;18.33;;;6.67;;
9789;SDS011;4934;50.852;8.098;2023-03-01T10:17:32;21.27;;;8.60;;
9789;SDS011;4934;50.852;8.098;2023-03-01T10:20:18;21.37;;;8.63;;
9789;SDS011;4934;50.852;8.098;2023-03-01T10:22:50;22.30;;;8.07;;
9789;SDS011;4934;50.852;8.098;2023-03-01T10:25:20;16.60;;;7.27;;
9789;SDS011;4934;50.852;8.098;2023-03-01T10:27:52;18.20;;;7.50;;
9789;SDS011;4934;50.852;8.098;2023-03-01T10:30:27;18.00;;;7.23;;
9789;SDS011;4934;50.852;8.098;2023-03-01T10:32:59;18.43;;;7.43;;
9789;SDS011;4934;50.852;8.098;2023-03-01T10:35:27;16.23;;;7.80;;
9789;SDS011;4934;50.852;8.098;2023-03-01T10:38:04;17.17;;;7.57;;
9789;SDS011;4934;50.852;8.098;2023-03-01T10:40:33;19.77;;;8.00;;
9789;SDS011;4934;50.852;8.098;2023-03-01T10:43:01;19.53;;;7.87;;
9789;SDS011;4934;50.852;8.098;2023-03-01T10:50:39;20.03;;;7.87;;
9789;SDS011;4934;50.852;8.098;2023-03-01T10:53:20;17.67;;;8.02;;
9789;SDS011;4934;50.852;8.098;2023-03-01T10:55:56;17.10;;;7.80;;
9789;SDS011;4934;50.852;8.098;2023-03-01T10:58:34;21.60;;;8.73;;
9789;SDS011;4934;50.852;8.098;2023-03-01T11:03:42;16.10;;;7.43;;
9789;SDS011;4934;50.852;8.098;2023-03-01T11:11:04;19.40;;;7.00;;
9789;SDS011;4934;50.852;8.098;2023-03-01T11:13:30;15.47;;;7.57;;
9789;SDS011;4934;50.852;8.098;2023-03-01T11:16:03;19.17;;;6.87;;
9789;SDS011;4934;50.852;8.098;2023-03-01T11:18:32;17.00;;;7.80;;
9789;SDS011;4934;50.852;8.098;2023-03-01T11:20:58;16.50;;;7.17;;
9789;SDS011;4934;50.852;8.098;2023-03-01T11:23:28;17.35;;;7.53;;
9789;SDS011;4934;50.852;8.098;2023-03-01T11:25:55;16.08;;;6.97;;
9789;SDS011;4934;50.852;8.098;2023-03-01T11:28:25;16.02;;;6.50;;
9789;SDS011;4934;50.852;8.098;2023-03-01T11:31:03;15.90;;;6.87;;
9789;SDS011;4934;50.852;8.098;2023-03-01T11:33:44;16.88;;;6.97;;
9789;SDS011;4934;50.852;8.098;2023-03-01T11:39:27;19.27;;;6.35;;
9789;SDS011;4934;50.852;8.098;2023-03-01T11:42:13;15.93;;;6.25;;
9789;SDS011;4934;50.852;8.098;2023-03-01T11:44:43;14.87;;;6.30;;
9789;SDS011;4934;50.852;8.098;2023-03-01T11:50:05;15.80;;;7.15;;
9789;SDS011;4934;50.852;8.098;2023-03-01T11:52:36;13.68;;;6.32;;
9789;SDS011;4934;50.852;8.098;2023-03-01T11:58:02;13.55;;;6.55;;
9789;SDS011;4934;50.852;8.098;2023-03-01T12:00:44;14.68;;;6.47;;
9789;SDS011;4934;50.852;8.098;2023-03-01T12:06:32;12.95;;;5.72;;
9789;SDS011;4934;50.852;8.098;2023-03-01T12:12:29;15.00;;;7.45;;
9789;SDS011;4934;50.852;8.098;2023-03-01T12:15:33;14.73;;;6.30;;
9789;SDS011;4934;50.852;8.098;2023-03-01T12:18:20;12.52;;;6.13;;
9789;SDS011;4934;50.852;8.098;2023-03-01T12:26:29;14.13;;;6.40;;
9789;SDS011;4934;50.852;8.098;2023-03-01T12:42:52;13.38;;;6.15;;
9789;SDS011;4934;50.852;8.098;2023-03-01T12:50:59;16.75;;;5.72;;
9789;SDS011;4934;50.852;8.098;2023-03-01T12:53:39;15.00;;;6.45;;
9789;SDS011;4934;50.852;8.098;2023-03-01T12:56:19;11.85;;;6.78;;
9789;SDS011;4934;50.852;8.098;2023-03-01T13:04:52;12.05;;;5.88;;
9789;SDS011;4934;50.852;8.098;2023-03-01T13:07:34;15.27;;;5.50;;
9789;SDS011;4934;50.852;8.098;2023-03-01T13:17:52;13.00;;;5.50;;
9789;SDS011;4934;50.852;8.098;2023-03-01T13:20:22;10.07;;;4.85;;
9789;SDS011;4934;50.852;8.098;2023-03-01T13:23:29;9.30;;;5.25;;
9789;SDS011;4934;50.852;8.098;2023-03-01T13:26:01;9.23;;;5.13;;
9789;SDS011;4934;50.852;8.098;2023-03-01T13:31:10;11.30;;;4.78;;
9789;SDS011;4934;50.852;8.098;2023-03-01T13:36:09;14.27;;;6.30;;
9789;SDS011;4934;50.852;8.098;2023-03-01T13:38:48;10.35;;;5.18;;
9789;SDS011;4934;50.852;8.098;2023-03-01T13:46:52;11.98;;;5.15;;
9789;SDS011;4934;50.852;8.098;2023-03-01T13:49:21;12.60;;;5.10;;
9789;SDS011;4934;50.852;8.098;2023-03-01T13:51:50;14.48;;;4.65;;
9789;SDS011;4934;50.852;8.098;2023-03-01T13:54:22;12.02;;;5.25;;
9789;SDS011;4934;50.852;8.098;2023-03-01T13:56:53;9.13;;;4.85;;
9789;SDS011;4934;50.852;8.098;2023-03-01T13:59:20;15.13;;;4.60;;
9789;SDS011;4934;50.852;8.098;2023-03-01T14:01:54;12.05;;;5.00;;
9789;SDS011;4934;50.852;8.098;2023-03-01T14:04:26;11.52;;;5.38;;
9789;SDS011;4934;50.852;8.098;2023-03-01T14:09:41;10.88;;;5.25;;
9789;SDS011;4934;50.852;8.098;2023-03-01T14:15:27;11.98;;;5.85;;
9789;SDS011;4934;50.852;8.098;2023-03-01T14:18:10;11.98;;;5.97;;
9789;SDS011;4934;50.852;8.098;2023-03-01T14:20:47;14.95;;;5.88;;
9789;SDS011;4934;50.852;8.098;2023-03-01T14:23:17;15.10;;;6.30;;
9789;SDS011;4934;50.852;8.098;2023-03-01T14:25:49;13.13;;;5.47;;
9789;SDS011;4934;50.852;8.098;2023-03-01T14:28:17;17.38;;;5.82;;
9789;SDS011;4934;50.852;8.098;2023-03-01T14:30:55;13.70;;;5.83;;
9789;SDS011;4934;50.852;8.098;2023-03-01T14:33:24;10.52;;;4.75;;
9789;SDS011;4934;50.852;8.098;2023-03-01T14:36:10;14.07;;;6.53;;
9789;SDS011;4934;50.852;8.098;2023-03-01T14:38:41;16.77;;;6.95;;
9789;SDS011;4934;50.852;8.098;2023-03-01T14:41:09;15.52;;;6.30;;
9789;SDS011;4934;50.852;8.098;2023-03-01T14:43:49;14.60;;;6.70;;
9789;SDS011;4934;50.852;8.098;2023-03-01T14:46:30;14.77;;;6.30;;
9789;SDS011;4934;50.852;8.098;2023-03-01T14:49:02;17.40;;;6.82;;
9789;SDS011;4934;50.852;8.098;2023-03-01T14:52:06;15.93;;;6.72;;
9789;SDS011;4934;50.852;8.098;2023-03-01T14:54:42;15.73;;;6.38;;
9789;SDS011;4934;50.852;8.098;2023-03-01T14:57:20;12.82;;;6.90;;
9789;SDS011;4934;50.852;8.098;2023-03-01T14:59:52;13.93;;;7.20;;
9789;SDS011;4934;50.852;8.098;2023-03-01T15:02:23;13.15;;;6.03;;
9789;SDS011;4934;50.852;8.098;2023-03-01T15:04:52;13.80;;;6.15;;
9789;SDS011;4934;50.852;8.098;2023-03-01T15:07:22;13.40;;;6.13;;
9789;SDS011;4934;50.852;8.098;2023-03-01T15:09:53;12.50;;;5.45;;
9789;SDS011;4934;50.852;8.098;2023-03-01T15:14:53;16.35;;;6.70;;
9789;SDS011;4934;50.852;8.098;2023-03-01T15:17:30;11.98;;;6.05;;
9789;SDS011;4934;50.852;8.098;2023-03-01T15:20:06;15.80;;;6.88;;
9789;SDS011;4934;50.852;8.098;2023-03-01T15:22:43;15.18;;;6.43;;
9789;SDS011;4934;50.852;8.098;2023-03-01T15:25:19;18.48;;;6.72;;
9789;SDS011;4934;50.852;8.098;2023-03-01T15:27:50;15.52;;;6.50;;
9789;SDS011;4934;50.852;8.098;2023-03-01T15:30:17;13.27;;;6.68;;
9789;SDS011;4934;50.852;8.098;2023-03-01T15:33:27;13.35;;;6.55;;
9789;SDS011;4934;50.852;8.098;2023-03-01T15:35:56;14.38;;;6.18;;
9789;SDS011;4934;50.852;8.098;2023-03-01T15:38:31;18.38;;;7.43;;
9789;SDS011;4934;50.852;8.098;2023-03-01T15:41:24;12.88;;;6.03;;
9789;SDS011;4934;50.852;8.098;2023-03-01T15:43:57;17.92;;;6.20;;
9789;SDS011;4934;50.852;8.098;2023-03-01T15:49:03;15.38;;;6.82;;
9789;SDS011;4934;50.852;8.098;2023-03-01T15:51:45;13.73;;;6.88;;
9789;SDS011;4934;50.852;8.098;2023-03-01T15:54:17;15.73;;;6.80;;
9789;SDS011;4934;50.852;8.098;2023-03-01T15:56:44;17.10;;;6.97;;
9789;SDS011;4934;50.852;8.098;2023-03-01T15:59:10;16.13;;;7.13;;
9789;SDS011;4934;50.852;8.098;2023-03-01T16:01:38;16.40;;;7.25;;
9789;SDS011;4934;50.852;8.098;2023-03-01T16:04:04;19.38;;;8.10;;
9789;SDS011;4934;50.852;8.098;2023-03-01T16:06:29;15.60;;;5.88;;
9789;SDS011;4934;50.852;8.098;2023-03-01T16:08:55;13.40;;;5.85;;
9789;SDS011;4934;50.852;8.098;2023-03-01T16:11:21;13.90;;;6.22;;
9789;SDS011;4934;50.852;8.098;2023-03-01T16:13:47;11.10;;;6.38;;
9789;SDS011;4934;50.852;8.098;2023-03-01T16:16:13;13.50;;;6.13;;
9789;SDS011;4934;50.852;8.098;2023-03-01T16:18:41;13.27;;;7.25;;
9789;SDS011;4934;50.852;8.098;2023-03-01T16:21:10;11.88;;;5.40;;
9789;SDS011;4934;50.852;8.098;2023-03-01T16:23:43;21.38;;;6.10;;
9789;SDS011;4934;50.852;8.098;2023-03-01T16:26:10;18.35;;;7.10;;
9789;SDS011;4934;50.852;8.098;2023-03-01T16:28:35;11.40;;;5.85;;
9789;SDS011;4934;50.852;8.098;2023-03-01T16:31:01;13.07;;;6.18;;
9789;SDS011;4934;50.852;8.098;2023-03-01T16:33:27;13.25;;;5.97;;
9789;SDS011;4934;50.852;8.098;2023-03-01T16:35:52;13.40;;;6.13;;
9789;SDS011;4934;50.852;8.098;2023-03-01T16:38:18;16.88;;;6.10;;
9789;SDS011;4934;50.852;8.098;2023-03-01T16:40:47;17.40;;;6.97;;
9789;SDS011;4934;50.852;8.098;2023-03-01T16:43:14;15.70;;;5.63;;
9789;SDS011;4934;50.852;8.098;2023-03-01T16:45:39;14.40;;;6.45;;
9789;SDS011;4934;50.852;8.098;2023-03-01T16:48:09;12.48;;;6.05;;
9789;SDS011;4934;50.852;8.098;2023-03-01T16:50:35;12.40;;;5.55;;
9789;SDS011;4934;50.852;8.098;2023-03-01T16:53:01;11.98;;;5.63;;
9789;SDS011;4934;50.852;8.098;2023-03-01T16:55:27;11.98;;;5.63;;
9789;SDS011;4934;50.852;8.098;2023-03-01T16:57:53;12.93;;;6.05;;
9789;SDS011;4934;50.852;8.098;2023-03-01T17:00:19;12.82;;;6.53;;
9789;SDS011;4934;50.852;8.098;2023-03-01T17:02:45;12.82;;;5.78;;